Time;durP1;ratioP1;P1;durP2;ratioP2;P2;SDS_P1;SDS_P2;PMS_P1;PMS_P2;Temp;Humidity;BMP_temperature;BMP_pressure;BME280_temperature;BME280_humidity;BME280_pressure;Samples;Min_cycle;Max_cycle;Signal;HPM_P1;HPM_P2
2022/03/16 00:00:23;;;;;;;44.85;23.00;;;;;;;6.51;39.72;100781.44;6373908;27;20479;-71
2022/03/16 00:03:24;;;;;;;49.78;23.08;;;;;;;6.48;40.30;100760.78;6373807;27;20143;-71
2022/03/16 00:06:25;;;;;;;49.95;24.67;;;;;;;6.46;40.45;100770.38;6371751;27;20384;-71
2022/03/16 00:09:26;;;;;;;55.22;25.58;;;;;;;6.42;40.15;100771.34;6355221;27;20050;-71
2022/03/16 00:12:27;;;;;;;46.00;24.15;;;;;;;6.42;40.42;100766.19;6354999;27;20053;-71
2022/03/16 00:15:28;;;;;;;45.75;23.95;;;;;;;6.42;41.25;100750.63;6372298;27;20433;-71
2022/03/16 00:18:28;;;;;;;52.53;24.58;;;;;;;6.33;41.71;100741.41;6373179;27;20061;-71
2022/03/16 00:21:30;;;;;;;48.03;25.55;;;;;;;6.27;41.29;100746.78;6373243;27;20042;-70
2022/03/16 00:24:31;;;;;;;48.03;24.60;;;;;;;6.27;42.07;100735.59;6373178;27;20042;-71
2022/03/16 00:27:32;;;;;;;52.50;26.83;;;;;;;6.23;41.97;100722.72;6372953;27;20043;-71
2022/03/16 00:30:33;;;;;;;48.88;25.90;;;;;;;6.20;41.91;100717.63;6371794;27;20074;-71
2022/03/16 00:33:34;;;;;;;51.58;26.38;;;;;;;6.17;40.87;100720.31;6371624;27;20380;-71
2022/03/16 00:36:34;;;;;;;55.63;27.83;;;;;;;6.18;40.83;100716.00;6371704;27;20043;-72
2022/03/16 00:39:35;;;;;;;54.30;25.83;;;;;;;6.11;42.03;100688.56;6371372;27;20121;-70
2022/03/16 00:42:36;;;;;;;42.22;23.65;;;;;;;6.14;41.50;100706.63;6372839;27;20539;-71
2022/03/16 00:45:37;;;;;;;55.22;24.35;;;;;;;6.11;42.70;100688.56;6372854;27;20050;-71
2022/03/16 00:48:38;;;;;;;47.80;24.50;;;;;;;6.06;42.57;100696.50;6371305;27;20583;-72
2022/03/16 00:51:39;;;;;;;45.88;24.08;;;;;;;6.00;43.04;100686.34;6371344;27;20043;-72
2022/03/16 00:54:39;;;;;;;50.30;23.80;;;;;;;5.93;42.58;100675.31;6372327;27;20035;-72
2022/03/16 00:57:40;;;;;;;51.20;22.63;;;;;;;5.88;42.27;100661.63;6372256;27;20508;-69
2022/03/16 01:00:41;;;;;;;46.08;23.08;;;;;;;5.88;43.13;100653.03;6370980;27;20547;-69
2022/03/16 01:03:42;;;;;;;60.70;31.38;;;;;;;5.84;43.37;100655.69;6372248;27;20481;-69
2022/03/16 01:06:43;;;;;;;63.40;32.67;;;;;;;5.86;42.44;100646.13;6371083;27;20484;-69
2022/03/16 01:09:44;;;;;;;65.72;32.72;;;;;;;5.86;42.81;100645.28;6371969;27;20061;-69
2022/03/16 01:12:44;;;;;;;66.80;33.17;;;;;;;5.81;43.15;100634.25;6371926;27;20043;-69
2022/03/16 01:15:45;;;;;;;59.17;31.10;;;;;;;5.78;42.31;100624.81;6370868;27;20043;-69
2022/03/16 01:18:46;;;;;;;74.95;34.92;;;;;;;5.66;43.45;100614.84;6369654;27;20483;-69
2022/03/16 01:21:47;;;;;;;61.33;31.85;;;;;;;5.66;42.71;100612.25;6371855;27;20066;-69
2022/03/16 01:24:48;;;;;;;95.85;42.15;;;;;;;5.70;42.61;100611.25;6370637;27;20168;-69
2022/03/16 01:27:49;;;;;;;77.40;36.72;;;;;;;5.76;43.00;100592.09;6371493;27;20074;-69
2022/03/16 01:30:50;;;;;;;82.85;36.60;;;;;;;5.71;43.88;100591.41;6370305;27;20040;-69
2022/03/16 01:33:50;;;;;;;60.30;30.30;;;;;;;5.78;42.36;100595.50;6371507;27;20049;-69
2022/03/16 01:36:51;;;;;;;58.88;28.92;;;;;;;5.83;42.42;100586.69;6371456;27;20487;-69
2022/03/16 01:39:52;;;;;;;66.43;29.10;;;;;;;5.83;42.06;100578.06;6371395;27;20122;-69
2022/03/16 01:42:53;;;;;;;55.05;28.70;;;;;;;5.84;43.41;100569.38;6371415;27;20099;-69
2022/03/16 01:45:54;;;;;;;54.83;26.00;;;;;;;5.83;42.54;100567.72;6371548;27;20158;-69
2022/03/16 01:48:55;;;;;;;44.92;25.73;;;;;;;5.87;42.53;100564.13;6371191;27;20047;-69
2022/03/16 01:51:56;;;;;;;50.00;26.33;;;;;;;5.90;42.86;100555.41;6370123;27;20035;-69
2022/03/16 01:54:58;;;;;;;55.22;27.98;;;;;;;5.90;42.73;100550.22;6369736;27;20526;-69
2022/03/16 01:58:00;;;;;;;54.55;29.85;;;;;;;5.88;42.97;100546.84;6371126;27;20047;-69
2022/03/16 02:01:02;;;;;;;49.03;26.77;;;;;;;5.88;42.95;100542.50;6369898;28;20043;-69
2022/03/16 02:04:02;;;;;;;49.42;26.48;;;;;;;5.85;43.62;100542.63;6371020;28;20075;-69
2022/03/16 02:07:04;;;;;;;58.15;27.48;;;;;;;5.84;43.58;100536.56;6371027;27;20044;-69
2022/03/16 02:10:06;;;;;;;88.43;37.58;;;;;;;5.86;43.39;100537.34;6370930;27;20044;-69
2022/03/16 02:13:10;;;;;;;78.88;32.63;;;;;;;5.90;43.37;100530.34;6370916;27;20035;-69
2022/03/16 02:16:12;;;;;;;79.15;34.67;;;;;;;5.81;43.87;100522.91;6369814;28;20035;-69
2022/03/16 02:19:13;;;;;;;59.43;28.60;;;;;;;5.76;43.51;100525.63;6370795;27;20050;-69
2022/03/16 02:22:14;;;;;;;62.20;25.38;;;;;;;5.80;43.81;100516.84;6369765;28;20035;-69
2022/03/16 02:25:16;;;;;;;50.00;25.10;;;;;;;5.85;43.35;100522.72;6369756;28;20116;-69
2022/03/16 02:28:18;;;;;;;49.53;23.98;;;;;;;5.86;43.36;100514.03;6370946;27;20049;-69
2022/03/16 02:31:19;;;;;;;53.25;26.45;;;;;;;5.83;43.49;100514.16;6376022;27;20096;-69
2022/03/16 02:34:20;;;;;;;56.92;25.65;;;;;;;5.84;43.75;100502.06;6376184;27;20043;-69
2022/03/16 02:37:21;;;;;;;44.92;24.63;;;;;;;5.84;44.07;100507.25;6375795;27;20492;-69
2022/03/16 02:40:22;;;;;;;50.53;24.67;;;;;;;5.86;43.69;100510.63;6374310;27;20084;-69
2022/03/16 02:43:24;;;;;;;42.83;23.10;;;;;;;5.90;43.23;100508.78;6373156;27;20546;-69
2022/03/16 02:46:25;;;;;;;45.83;23.30;;;;;;;5.93;43.33;100493.97;6316192;28;20048;-69
2022/03/16 02:49:28;;;;;;;40.53;21.40;;;;;;;5.97;43.48;100498.19;6350756;28;20042;-69
2022/03/16 02:52:29;;;;;;;44.03;22.48;;;;;;;6.01;43.21;100494.59;6367573;27;20039;-69
2022/03/16 02:55:30;;;;;;;40.78;21.85;;;;;;;6.02;42.80;100490.25;6375362;27;20054;-69
2022/03/16 02:58:31;;;;;;;45.08;22.77;;;;;;;6.07;43.00;100506.47;6374441;27;20511;-66
2022/03/16 03:01:32;;;;;;;39.75;21.98;;;;;;;6.21;42.33;100504.22;6374663;27;20039;-67
2022/03/16 03:04:33;;;;;;;41.47;20.80;;;;;;;6.27;41.96;100503.19;6376115;27;20045;-67
2022/03/16 03:07:33;;;;;;;39.47;20.25;;;;;;;6.27;41.80;100504.94;6374605;27;20100;-66
2022/03/16 03:10:34;;;;;;;42.78;21.05;;;;;;;6.31;41.65;100516.88;6374504;27;20053;-66
2022/03/16 03:13:35;;;;;;;41.47;20.60;;;;;;;6.43;41.69;100519.88;6374462;27;20043;-66
2022/03/16 03:16:36;;;;;;;40.47;22.10;;;;;;;6.43;41.10;100525.03;6375724;27;20097;-66
2022/03/16 03:19:37;;;;;;;46.47;20.17;;;;;;;6.48;40.97;100543.03;6357185;27;20477;-66
2022/03/16 03:22:39;;;;;;;39.72;20.52;;;;;;;6.56;41.33;100542.75;6375513;27;20039;-66
2022/03/16 03:25:40;;;;;;;43.55;21.75;;;;;;;6.63;42.69;100551.97;6374294;27;20043;-66
2022/03/16 03:28:40;;;;;;;39.75;20.00;;;;;;;6.52;43.32;100561.91;6354139;27;20043;-66
2022/03/16 03:31:41;;;;;;;40.35;20.90;;;;;;;6.59;43.75;100558.19;6331576;28;20087;-66
2022/03/16 03:34:47;;;;;;;39.08;20.15;;;;;;;6.59;44.33;100565.97;6348498;28;20100;-66
2022/03/16 03:37:51;;;;;;;38.00;20.45;;;;;;;6.53;45.76;100561.03;6349897;28;20479;-67
2022/03/16 03:40:51;;;;;;;40.33;20.27;;;;;;;6.43;46.99;100560.50;6347378;28;20100;-66
2022/03/16 03:43:52;;;;;;;40.70;20.30;;;;;;;6.42;47.97;100575.22;6348338;28;20039;-66
2022/03/16 03:46:53;;;;;;;36.90;20.23;;;;;;;6.45;46.86;100577.69;6349636;28;20113;-66
2022/03/16 03:49:54;;;;;;;40.00;20.60;;;;;;;6.40;48.54;100581.34;6331091;28;20046;-67
2022/03/16 03:52:55;;;;;;;36.95;21.30;;;;;;;6.35;48.58;100589.28;6349374;28;20044;-67
2022/03/16 03:55:56;;;;;;;42.42;22.02;;;;;;;6.32;52.89;100586.81;6347818;28;20123;-67
2022/03/16 03:58:58;;;;;;;45.03;24.20;;;;;;;6.18;52.80;100605.41;6331233;28;20043;-67
2022/03/16 04:01:59;;;;;;;45.15;21.95;;;;;;;6.11;52.96;100598.72;6349053;28;20100;-66
2022/03/16 04:05:03;;;;;;;48.45;21.95;;;;;;;6.09;55.42;100599.69;6349163;28;20047;-66
2022/03/16 04:08:04;;;;;;;36.65;20.80;;;;;;;6.00;57.01;100583.56;6349119;28;20111;-66
2022/03/16 04:11:05;;;;;;;43.55;20.52;;;;;;;5.92;59.05;100574.31;6347442;28;20050;-67
2022/03/16 04:14:06;;;;;;;44.60;23.77;;;;;;;5.82;64.35;100572.03;6330806;28;20063;-66
2022/03/16 04:17:07;;;;;;;45.75;23.05;;;;;;;5.77;64.25;100573.94;6348928;28;20384;-66
2022/03/16 04:20:08;;;;;;;41.45;23.00;;;;;;;5.76;66.13;100573.97;6330407;28;20408;-66
2022/03/16 04:23:10;;;;;;;55.28;23.98;;;;;;;5.70;71.70;100571.59;6347349;28;20043;-67
2022/03/16 04:26:11;;;;;;;43.50;23.02;;;;;;;5.51;74.79;100564.41;6347675;28;20631;-68
2022/03/16 04:29:12;;;;;;;41.22;22.65;;;;;;;5.56;74.13;100561.66;6347263;28;20047;-68
2022/03/16 04:32:12;;;;;;;57.88;29.00;;;;;;;5.42;76.75;100562.13;6347180;28;20169;-68
2022/03/16 04:35:13;;;;;;;69.18;34.15;;;;;;;5.35;77.54;100548.50;6348346;28;20176;-68
2022/03/16 04:38:14;;;;;;;52.15;27.25;;;;;;;5.30;81.29;100553.00;6348414;28;20048;-69
2022/03/16 04:41:15;;;;;;;45.90;22.65;;;;;;;5.27;79.98;100545.31;6348036;28;20426;-69
2022/03/16 04:44:16;;;;;;;44.05;23.25;;;;;;;5.13;83.79;100555.28;6333484;27;20114;-70
2022/03/16 04:47:16;;;;;;;44.45;22.38;;;;;;;5.07;85.24;100545.97;6347394;28;20399;-70
2022/03/16 04:50:18;;;;;;;47.42;22.42;;;;;;;5.12;86.05;100533.72;6346065;28;20032;-70
2022/03/16 04:53:18;;;;;;;43.78;22.10;;;;;;;5.17;87.40;100536.19;6336661;27;20035;-70
2022/03/16 04:56:19;;;;;;;45.83;23.73;;;;;;;5.16;87.83;100535.31;6371933;27;20083;-70
2022/03/16 04:59:20;;;;;;;40.75;23.73;;;;;;;5.19;90.57;100524.03;6389328;27;20041;-69
2022/03/16 05:02:21;;;;;;;44.08;22.88;;;;;;;5.05;91.80;100524.47;6354221;27;20407;-70
2022/03/16 05:05:22;;;;;;;44.35;22.05;;;;;;;5.02;95.55;100509.03;6347631;28;20050;-70
2022/03/16 05:08:22;;;;;;;47.13;23.63;;;;;;;4.89;97.77;100497.38;6346293;28;20105;-71
2022/03/16 05:11:23;;;;;;;46.85;23.67;;;;;;;4.80;100.00;100490.75;6349777;27;20043;-70
2022/03/16 05:14:24;;;;;;;48.25;24.00;;;;;;;4.89;100.00;100487.88;6335096;27;20047;-70
2022/03/16 05:17:25;;;;;;;41.65;24.67;;;;;;;4.86;100.00;100493.16;6348460;27;20042;-70
2022/03/16 05:20:26;;;;;;;50.30;25.83;;;;;;;4.81;100.00;100484.66;6363207;27;20753;-69
2022/03/16 05:23:27;;;;;;;48.28;25.02;;;;;;;4.62;100.00;100477.47;6371528;27;20502;-69
2022/03/16 05:26:27;;;;;;;48.15;27.50;;;;;;;4.68;100.00;100468.69;6354400;27;20036;-69
2022/03/16 05:29:28;;;;;;;45.50;26.80;;;;;;;4.67;100.00;100466.97;6329029;28;20138;-70
2022/03/16 05:32:31;;;;;;;42.88;25.13;;;;;;;4.51;100.00;100465.75;6347008;28;20043;-70
2022/03/16 05:35:32;;;;;;;;;;;;;;;4.50;100.00;100451.97;6347586;28;20082;-69
2022/03/16 05:38:32;;;;;;;42.08;22.80;;;;;;;4.42;100.00;100444.44;6347033;28;19919;-69
2022/03/16 05:41:33;;;;;;;60.72;29.83;;;;;;;4.27;100.00;100434.56;6345756;28;20142;-70
2022/03/16 05:44:34;;;;;;;242.60;104.32;;;;;;;4.34;100.00;100433.50;6346874;28;20105;-70
2022/03/16 05:47:35;;;;;;;130.65;64.78;;;;;;;4.35;100.00;100431.78;6346958;28;20046;-70
2022/03/16 05:50:38;;;;;;;89.13;50.25;;;;;;;4.38;100.00;100427.34;6362040;27;20487;-70
2022/03/16 05:53:39;;;;;;;67.18;36.33;;;;;;;4.36;100.00;100428.28;6341009;27;20105;-69
2022/03/16 05:56:40;;;;;;;52.17;28.13;;;;;;;4.29;100.00;100425.03;6364898;27;20495;-70
2022/03/16 05:59:42;;;;;;;51.78;24.20;;;;;;;4.28;100.00;100413.00;6344882;28;20043;-73
2022/03/16 06:02:47;;;;;;;74.35;31.30;;;;;;;4.31;100.00;100412.94;6345497;28;20047;-74
2022/03/16 06:05:48;;;;;;;61.75;29.92;;;;;;;4.34;100.00;100411.97;6349521;27;20069;-74
2022/03/16 06:08:48;;;;;;;53.00;28.40;;;;;;;4.36;100.00;100411.03;6359249;27;20043;-74
2022/03/16 06:11:49;;;;;;;46.85;26.25;;;;;;;4.35;100.00;100405.94;6353436;27;20051;-74
2022/03/16 06:14:50;;;;;;;48.20;25.42;;;;;;;4.39;100.00;100400.63;6345711;28;20044;-73
2022/03/16 06:17:52;;;;;;;46.72;27.02;;;;;;;4.44;100.00;100403.91;6345794;28;20070;-73
2022/03/16 06:20:53;;;;;;;38.70;23.30;;;;;;;4.44;100.00;100403.91;6344312;28;20075;-73
2022/03/16 06:23:54;;;;;;;44.30;24.13;;;;;;;4.48;100.00;100404.66;6345500;28;20513;-73
2022/03/16 06:26:55;;;;;;;44.17;22.35;;;;;;;4.42;100.00;100402.25;6344366;28;20043;-73
2022/03/16 06:29:55;;;;;;;38.92;21.48;;;;;;;4.43;100.00;100403.97;6345371;28;20044;-72
2022/03/16 06:32:56;;;;;;;39.42;21.42;;;;;;;4.58;100.00;100421.59;6348719;27;20039;-73
2022/03/16 06:35:57;;;;;;;40.42;20.48;;;;;;;4.64;100.00;100436.91;6355758;27;20035;-73
2022/03/16 06:38:58;;;;;;;38.33;22.25;;;;;;;4.62;100.00;100430.94;6334996;28;20089;-73
2022/03/16 06:41:58;;;;;;;38.65;22.02;;;;;;;4.73;100.00;100420.25;6343748;28;20529;-73
2022/03/16 06:44:59;;;;;;;35.80;21.10;;;;;;;4.52;100.00;100383.00;6369414;27;20046;-73
2022/03/16 06:48:02;;;;;;;39.25;21.17;;;;;;;4.50;100.00;100384.78;6352221;28;20088;-72
2022/03/16 06:51:03;;;;;;;34.10;20.90;;;;;;;4.54;100.00;100388.13;6370237;27;20043;-73
2022/03/16 06:54:03;;;;;;;43.05;21.20;;;;;;;4.54;100.00;100394.16;6369267;28;20546;-73
2022/03/16 06:57:04;;;;;;;32.97;19.55;;;;;;;4.58;100.00;100389.72;6370099;28;20104;-68
2022/03/16 07:00:08;;;;;;;34.33;20.10;;;;;;;4.52;100.00;100390.75;6370319;27;20547;-73
2022/03/16 07:03:09;;;;;;;41.45;20.38;;;;;;;4.61;100.00;100387.03;6370135;27;20062;-73
2022/03/16 07:06:10;;;;;;;37.13;20.85;;;;;;;4.67;100.00;100391.19;6369212;28;20420;-73
2022/03/16 07:09:11;;;;;;;31.80;19.20;;;;;;;4.58;100.00;100381.97;6368947;28;20487;-73
2022/03/16 07:12:12;;;;;;;38.55;21.85;;;;;;;4.66;100.00;100386.91;6368991;28;20036;-73
2022/03/16 07:15:13;;;;;;;39.78;22.15;;;;;;;4.62;100.00;100376.66;6370287;27;20050;-73
2022/03/16 07:18:16;;;;;;;41.65;22.35;;;;;;;4.76;100.00;100386.56;6375139;27;20043;-73
2022/03/16 07:21:16;;;;;;;39.30;22.48;;;;;;;4.76;100.00;100393.50;6374755;27;20043;-73
2022/03/16 07:24:17;;;;;;;45.53;23.58;;;;;;;4.87;100.00;100378.47;6374486;27;20104;-73
2022/03/16 07:27:18;;;;;;;55.03;33.00;;;;;;;4.88;100.00;100377.59;6374577;27;20054;-74
2022/03/16 07:30:19;;;;;;;306.02;159.50;;;;;;;4.92;100.00;100392.13;6374483;27;20047;-74
2022/03/16 07:33:20;;;;;;;46.33;26.88;;;;;;;4.97;100.00;100389.38;6372570;27;20054;-73
2022/03/16 07:36:21;;;;;;;37.28;20.73;;;;;;;5.04;100.00;100396.88;6365459;27;20479;-73
2022/03/16 07:39:22;;;;;;;39.53;22.40;;;;;;;4.97;100.00;100391.94;6364948;27;20078;-73
2022/03/16 07:42:23;;;;;;;39.67;23.02;;;;;;;5.07;100.00;100401.09;6345227;28;20492;-73
2022/03/16 07:45:24;;;;;;;33.08;19.67;;;;;;;5.06;100.00;100404.56;6346148;28;20090;-74
2022/03/16 07:48:25;;;;;;;36.15;20.25;;;;;;;5.00;100.00;100408.22;6346421;28;20055;-74
2022/03/16 07:51:26;;;;;;;33.92;19.90;;;;;;;5.06;100.00;100414.91;6346160;28;20045;-74
2022/03/16 07:54:27;;;;;;;32.22;20.02;;;;;;;5.14;100.00;100430.19;6347448;28;20100;-74
2022/03/16 07:57:28;;;;;;;35.90;20.05;;;;;;;5.23;100.00;100448.03;6347852;28;20692;-74
2022/03/16 08:00:29;;;;;;;41.28;21.30;;;;;;;5.18;100.00;100432.63;6348329;28;20104;-75
2022/03/16 08:03:30;;;;;;;31.67;19.95;;;;;;;5.18;100.00;100436.97;6348090;28;20119;-74
2022/03/16 08:06:31;;;;;;;42.22;22.45;;;;;;;5.17;100.00;100423.19;6330128;28;20487;-75
2022/03/16 08:09:32;;;;;;;49.72;29.27;;;;;;;5.24;100.00;100426.41;6348007;28;20039;-75
2022/03/16 08:12:33;;;;;;;39.45;23.58;;;;;;;5.18;100.00;100419.69;6348067;28;20039;-75
2022/03/16 08:15:34;;;;;;;52.53;29.98;;;;;;;5.14;100.00;100423.28;6346794;28;20100;-75
2022/03/16 08:18:34;;;;;;;49.95;28.13;;;;;;;5.12;100.00;100419.91;6347864;28;20051;-75
2022/03/16 08:21:35;;;;;;;44.70;25.85;;;;;;;5.13;100.00;100413.84;6347847;28;20051;-75
2022/03/16 08:24:36;;;;;;;38.13;20.42;;;;;;;5.06;100.00;100412.34;6346507;28;20039;-75
2022/03/16 08:27:39;;;;;;;50.47;28.80;;;;;;;5.10;100.00;100411.34;6346013;28;20384;-74
2022/03/16 08:30:41;;;;;;;50.08;29.17;;;;;;;5.14;100.00;100405.16;6347441;28;20044;-74
2022/03/16 08:33:42;;;;;;;43.20;23.95;;;;;;;5.10;100.00;100403.56;6347354;27;20046;-74
2022/03/16 08:36:43;;;;;;;47.22;24.30;;;;;;;5.12;100.00;100413.88;6349720;27;20050;-74
2022/03/16 08:39:44;;;;;;;49.60;28.73;;;;;;;5.23;100.00;100423.00;6351492;27;20403;-74
2022/03/16 08:42:45;;;;;;;53.70;28.90;;;;;;;5.23;100.00;100422.16;6371587;27;20480;-74
2022/03/16 08:45:47;;;;;;;65.60;35.80;;;;;;;5.22;100.00;100425.63;6371461;27;20050;-74
2022/03/16 08:48:47;;;;;;;63.53;33.97;;;;;;;5.33;100.00;100430.44;6349347;27;20039;-74
2022/03/16 08:51:48;;;;;;;48.78;28.92;;;;;;;5.26;100.00;100427.22;6347228;28;20050;-74
2022/03/16 08:54:50;;;;;;;46.38;28.48;;;;;;;5.37;100.00;100424.25;6345815;28;20199;-75
2022/03/16 08:57:51;;;;;;;52.55;29.45;;;;;;;5.34;100.00;100422.63;6350556;27;20039;-74
2022/03/16 09:00:51;;;;;;;40.55;24.77;;;;;;;5.31;100.00;100420.13;6357616;27;20050;-74
2022/03/16 09:03:53;;;;;;;46.05;27.45;;;;;;;5.35;100.00;100420.88;6347168;28;20046;-74
2022/03/16 09:06:54;;;;;;;44.77;26.43;;;;;;;5.24;100.00;100416.91;6345710;28;20502;-74
2022/03/16 09:09:55;;;;;;;45.42;26.77;;;;;;;5.26;100.00;100409.09;6328657;28;20295;-74
2022/03/16 09:12:56;;;;;;;53.97;29.98;;;;;;;5.47;100.00;100404.09;6345529;28;20044;-74
2022/03/16 09:15:59;;;;;;;52.20;30.13;;;;;;;5.56;100.00;100399.47;6344798;28;20046;-74
2022/03/16 09:19:00;;;;;;;56.05;33.22;;;;;;;5.76;100.00;100408.25;6345600;28;20052;-74
2022/03/16 09:22:02;;;;;;;38.28;24.00;;;;;;;5.79;100.00;100396.06;6345715;28;20044;-74
2022/03/16 09:25:06;;;;;;;37.15;24.08;;;;;;;5.91;100.00;100399.09;6346747;28;20441;-74
2022/03/16 09:28:08;;;;;;;38.95;23.40;;;;;;;5.96;100.00;100394.63;6346625;27;20046;-74
2022/03/16 09:31:09;;;;;;;37.83;23.90;;;;;;;5.98;100.00;100392.81;6360835;27;20044;-75
2022/03/16 09:34:10;;;;;;;39.70;22.63;;;;;;;5.96;100.00;100392.03;6346862;28;20043;-74
2022/03/16 09:37:11;;;;;;;31.52;21.17;;;;;;;5.96;100.00;100400.66;6345205;28;20038;-74
2022/03/16 09:40:12;;;;;;;38.53;23.33;;;;;;;6.10;100.00;100405.34;6327909;28;20093;-74
2022/03/16 09:43:18;;;;;;;38.78;21.77;;;;;;;6.13;100.00;100401.78;6345048;28;20456;-74
2022/03/16 09:46:24;;;;;;;45.47;27.30;;;;;;;6.14;100.00;100400.88;6347018;28;20472;-74
2022/03/16 09:49:28;;;;;;;36.28;23.48;;;;;;;6.05;100.00;100397.72;6345244;28;20047;-74
2022/03/16 09:52:29;;;;;;;33.17;20.80;;;;;;;6.07;100.00;100402.84;6328516;28;20039;-74
2022/03/16 09:55:30;;;;;;;33.50;22.00;;;;;;;5.98;100.00;100396.25;6345599;28;20054;-74
2022/03/16 09:58:31;;;;;;;44.20;23.30;;;;;;;6.02;100.00;100394.41;6345569;28;20047;-74
2022/03/16 10:01:35;;;;;;;42.67;25.40;;;;;;;6.04;100.00;100406.41;6345785;28;20480;-73
2022/03/16 10:04:36;;;;;;;38.95;23.40;;;;;;;6.07;100.00;100402.84;6344573;28;20039;-69
2022/03/16 10:07:37;;;;;;;34.83;20.48;;;;;;;6.01;100.00;100393.56;6345604;28;20039;-69
2022/03/16 10:14:14;;;;;;;39.78;21.65;;;;;;;6.02;100.00;100394.41;6344104;28;20453;-69
2022/03/16 10:20:43;;;;;;;34.03;19.98;;;;;;;6.10;100.00;100404.50;6345171;28;20055;-69
2022/03/16 10:23:45;;;;;;;33.10;20.40;;;;;;;6.11;100.00;100412.19;6345323;28;20040;-70
2022/03/16 10:26:52;;;;;;;35.28;20.90;;;;;;;6.09;100.00;100406.22;6345350;28;20040;-71
2022/03/16 10:29:54;;;;;;;39.22;20.50;;;;;;;6.06;100.00;100403.75;6345236;28;20044;-71
2022/03/16 10:32:55;;;;;;;34.78;21.42;;;;;;;6.15;100.00;100408.59;6353431;28;20047;-69
2022/03/16 10:35:57;;;;;;;35.67;21.45;;;;;;;6.14;100.00;100406.91;6368433;28;20164;-71
2022/03/16 10:39:02;;;;;;;36.95;21.48;;;;;;;6.15;100.00;100408.59;6370319;27;20035;-71
2022/03/16 10:49:07;;;;;;;27.85;18.13;;;;;;;5.99;100.00;100417.81;6369358;28;20054;-71
2022/03/16 10:52:13;;;;;;;29.58;18.70;;;;;;;6.00;100.00;100414.34;6374879;27;20043;-70
2022/03/16 10:55:14;;;;;;;31.65;18.38;;;;;;;5.90;100.00;100431.91;6373279;27;20062;-70
2022/03/16 10:58:18;;;;;;;30.42;19.10;;;;;;;5.94;100.00;100424.88;6370562;27;20051;-70
2022/03/16 11:01:20;;;;;;;31.08;19.17;;;;;;;5.89;100.00;100429.38;6374530;27;20043;-71
2022/03/16 11:04:24;;;;;;;28.58;17.17;;;;;;;5.96;100.00;100436.06;6374675;27;20043;-70
2022/03/16 11:07:26;;;;;;;27.80;17.33;;;;;;;5.93;100.00;100425.78;6373334;27;20073;-70
2022/03/16 11:10:27;;;;;;;27.30;17.58;;;;;;;5.78;100.00;100435.78;6373155;27;20050;-70
2022/03/16 11:13:28;;;;;;;22.98;16.55;;;;;;;5.83;100.00;100443.41;6371718;27;20150;-70
2022/03/16 11:16:30;;;;;;;23.92;16.60;;;;;;;5.67;100.00;100439.66;6359113;27;20036;-70
2022/03/16 11:19:31;;;;;;;25.67;16.58;;;;;;;5.64;100.00;100444.03;6366619;27;20047;-70
2022/03/16 11:22:37;;;;;;;27.92;17.88;;;;;;;5.73;100.00;100447.22;6362242;27;20047;-70
2022/03/16 11:26:00;;;;;;;26.65;16.92;;;;;;;5.73;100.00;100450.63;6348156;28;20035;-71
2022/03/16 11:29:19;;;;;;;29.55;17.30;;;;;;;5.74;100.00;100454.91;6364234;27;20078;-71
2022/03/16 11:32:20;;;;;;;29.42;16.90;;;;;;;5.65;100.00;100452.66;6363402;27;20122;-71
2022/03/16 11:35:21;;;;;;;27.42;16.75;;;;;;;5.63;100.00;100446.69;6365119;27;20046;-71
2022/03/16 11:38:23;;;;;;;29.85;16.65;;;;;;;5.74;100.00;100446.31;6362504;27;20067;-71
2022/03/16 11:41:26;;;;;;;28.92;17.20;;;;;;;5.64;100.00;100454.41;6369296;27;20066;-71
2022/03/16 11:44:29;;;;;;;27.75;17.50;;;;;;;5.77;100.00;100453.97;6355308;27;20047;-71
2022/03/16 11:47:29;;;;;;;33.05;18.63;;;;;;;5.72;100.00;100450.69;6374312;27;20039;-70
2022/03/16 11:50:30;;;;;;;31.40;18.08;;;;;;;5.83;100.00;100443.41;6364142;27;20512;-71
2022/03/16 11:53:51;;;;;;;35.28;20.20;;;;;;;5.77;100.00;100452.22;6369279;27;20043;-71
2022/03/16 11:56:54;;;;;;;38.33;22.98;;;;;;;5.74;100.00;100444.56;6370097;27;20056;-71
2022/03/16 12:00:11;;;;;;;31.88;19.52;;;;;;;5.70;100.00;100455.91;6348290;28;20044;-71
2022/03/16 12:03:23;;;;;;;34.15;18.65;;;;;;;5.67;100.00;100450.84;6347438;28;20118;-71
2022/03/16 12:06:29;;;;;;;32.30;18.42;;;;;;;5.63;100.00;100450.09;6348326;28;20040;-71
2022/03/16 12:09:33;;;;;;;29.73;18.60;;;;;;;5.70;100.00;100447.31;6346610;28;20043;-75
2022/03/16 12:12:57;;;;;;;34.30;20.02;;;;;;;5.53;100.00;100443.56;6348213;27;20408;-76
2022/03/16 12:16:06;;;;;;;32.75;19.23;;;;;;;5.65;100.00;100445.72;6347931;28;20046;-76
2022/03/16 12:19:29;;;;;;;34.20;20.92;;;;;;;5.72;100.00;100435.16;6331915;27;20040;-76
2022/03/16 12:22:38;;;;;;;31.38;20.40;;;;;;;5.86;100.00;100440.69;6359694;27;20517;-75
2022/03/16 12:25:42;;;;;;;34.13;20.85;;;;;;;5.98;100.00;100432.53;6364850;27;20123;-75
2022/03/16 12:28:56;;;;;;;37.22;20.65;;;;;;;5.85;100.00;100436.44;6364778;27;20044;-75
2022/03/16 12:31:57;;;;;;;34.60;21.10;;;;;;;6.01;100.00;100429.84;6356904;27;20096;-75
2022/03/16 12:34:59;;;;;;;31.55;21.17;;;;;;;6.05;100.00;100421.06;6350619;27;20043;-75
2022/03/16 12:38:08;;;;;;;32.42;21.77;;;;;;;6.08;100.00;100427.84;6333505;27;20047;-74
2022/03/16 12:44:45;;;;;;;28.90;19.10;;;;;;;6.01;100.00;100434.16;6345634;27;20042;-75
2022/03/16 12:48:03;;;;;;;42.92;22.92;;;;;;;6.08;100.00;100432.22;6344781;27;20070;-74
2022/03/16 12:51:04;;;;;;;69.03;34.75;;;;;;;5.92;100.00;100444.81;6345131;28;20035;-74
2022/03/16 12:54:07;;;;;;;46.05;23.83;;;;;;;6.02;100.00;100436.69;6345266;28;20096;-74
2022/03/16 12:57:12;;;;;;;31.92;19.73;;;;;;;6.04;100.00;100459.97;6345588;28;20062;-74
2022/03/16 13:00:14;;;;;;;33.03;18.45;;;;;;;6.08;100.00;100463.28;6346828;28;20046;-74
2022/03/16 13:03:17;;;;;;;36.43;19.17;;;;;;;5.84;100.00;100468.38;6346827;28;20043;-75
2022/03/16 13:06:18;;;;;;;29.67;18.38;;;;;;;5.88;100.00;100475.16;6345761;28;20051;-74
2022/03/16 13:09:20;;;;;;;31.55;18.55;;;;;;;5.71;100.00;100474.91;6362883;27;20042;-74
2022/03/16 13:12:25;;;;;;;29.52;17.30;;;;;;;5.77;100.00;100470.34;6347691;27;20642;-74
2022/03/16 13:15:26;;;;;;;27.80;16.95;;;;;;;5.67;100.00;100476.75;6351856;27;20036;-74
2022/03/16 13:18:33;;;;;;;28.40;17.40;;;;;;;5.70;100.00;100481.81;6344667;28;20039;-70
2022/03/16 13:21:35;;;;;;;32.03;18.58;;;;;;;5.77;100.00;100482.47;6362542;27;20043;-71
2022/03/16 13:24:47;;;;;;;24.98;16.77;;;;;;;5.82;100.00;100494.34;6369909;27;20067;-71
2022/03/16 13:27:51;;;;;;;31.35;16.38;;;;;;;5.74;100.00;100496.34;6348074;27;20096;-70
2022/03/16 13:30:52;;;;;;;29.83;17.15;;;;;;;5.95;100.00;100501.72;6366701;27;20394;-70
2022/03/16 13:33:53;;;;;;;28.23;15.95;;;;;;;5.79;100.00;100498.78;6355530;27;20046;-70
2022/03/16 13:36:55;;;;;;;27.63;15.85;;;;;;;5.89;100.00;100504.47;6344957;28;20078;-70
2022/03/16 13:40:00;;;;;;;25.48;15.88;;;;;;;5.97;100.00;100507.69;6346064;28;20139;-71
2022/03/16 13:43:06;;;;;;;24.85;16.52;;;;;;;5.92;100.00;100505.22;6345933;28;20043;-69
2022/03/16 13:46:14;;;;;;;28.75;16.42;;;;;;;6.04;100.00;100509.19;6345950;28;20050;-68
2022/03/16 13:49:15;;;;;;;28.40;16.52;;;;;;;6.11;100.00;100505.47;6345865;28;20088;-69
2022/03/16 13:52:21;;;;;;;25.38;15.27;;;;;;;6.22;100.00;100520.66;6327787;28;20480;-69
2022/03/16 13:55:23;;;;;;;28.25;16.50;;;;;;;6.11;100.00;100515.81;6344481;28;20059;-69
2022/03/16 13:58:25;;;;;;;30.40;15.88;;;;;;;6.10;100.00;100518.50;6349714;27;20506;-69
2022/03/16 14:01:31;;;;;;;30.73;16.80;;;;;;;6.17;100.00;100518.19;6360095;27;20122;-69
2022/03/16 14:04:38;;;;;;;30.83;17.50;;;;;;;6.21;100.00;100516.34;6370434;27;20043;-69
2022/03/16 14:07:43;;;;;;;30.10;18.08;;;;;;;6.29;100.00;100518.69;6369678;28;20043;-69